sensor_id;sensor_type;location;lat;lon;timestamp;pressure;altitude;pressure_sealevel;temperature;humidity
37610;BME280;23457;51.966;8.230;2023-10-13T00:01:57;100560.31;;;17.44;100.00
37610;BME280;23457;51.966;8.230;2023-10-13T00:04:26;100557.75;;;17.38;100.00
37610;BME280;23457;51.966;8.230;2023-10-13T00:06:53;100559.72;;;17.23;100.00
37610;BME280;23457;51.966;8.230;2023-10-13T00:09:23;100555.25;;;17.31;100.00
37610;BME280;23457;51.966;8.230;2023-10-13T00:12:00;100545.53;;;17.36;100.00
37610;BME280;23457;51.966;8.230;2023-10-13T00:14:27;100549.88;;;17.40;100.00
37610;BME280;23457;51.966;8.230;2023-10-13T00:17:02;100545.78;;;17.21;100.00
37610;BME280;23457;51.966;8.230;2023-10-13T00:19:38;100544.75;;;17.29;100.00
37610;BME280;23457;51.966;8.230;2023-10-13T00:22:11;100538.47;;;17.39;100.00
37610;BME280;23457;51.966;8.230;2023-10-13T00:24:39;100532.13;;;17.54;100.00
37610;BME280;23457;51.966;8.230;2023-10-13T00:27:10;100540.38;;;17.31;100.00
37610;BME280;23457;51.966;8.230;2023-10-13T00:29:56;100544.75;;;17.29;100.00
37610;BME280;23457;51.966;8.230;2023-10-13T00:32:46;100538.44;;;17.44;100.00
37610;BME280;23457;51.966;8.230;2023-10-13T00:35:13;100545.78;;;17.21;100.00
37610;BME280;23457;51.966;8.230;2023-10-13T00:37:55;100530.41;;;17.51;100.00
37610;BME280;23457;51.966;8.230;2023-10-13T00:40:24;100537.63;;;17.39;100.00
37610;BME280;23457;51.966;8.230;2023-10-13T00:42:58;100536.72;;;17.40;100.00
37610;BME280;23457;51.966;8.230;2023-10-13T00:45:52;100541.09;;;17.41;100.00
37610;BME280;23457;51.966;8.230;2023-10-13T00:48:29;100526.06;;;17.50;100.00
37610;BME280;23457;51.966;8.230;2023-10-13T00:51:06;100522.53;;;17.51;100.00
37610;BME280;23457;51.966;8.230;2023-10-13T00:53:36;100524.19;;;17.60;100.00
37610;BME280;23457;51.966;8.230;2023-10-13T00:56:14;100518.97;;;17.57;100.00
37610;BME280;23457;51.966;8.230;2023-10-13T00:58:54;100509.59;;;17.39;100.00
37610;BME280;23457;51.966;8.230;2023-10-13T01:01:25;100512.66;;;17.69;100.00
37610;BME280;23457;51.966;8.230;2023-10-13T01:03:56;100507.47;;;17.63;100.00
37610;BME280;23457;51.966;8.230;2023-10-13T01:06:27;100508.53;;;17.51;100.00
37610;BME280;23457;51.966;8.230;2023-10-13T01:09:05;100510.94;;;17.68;100.00
37610;BME280;23457;51.966;8.230;2023-10-13T01:11:45;100504.97;;;17.55;100.00
37610;BME280;23457;51.966;8.230;2023-10-13T01:14:14;100500.53;;;17.59;100.00
37610;BME280;23457;51.966;8.230;2023-10-13T01:16:45;100498.72;;;17.64;100.00
37610;BME280;23457;51.966;8.230;2023-10-13T01:19:13;100502.41;;;17.50;100.00
37610;BME280;23457;51.966;8.230;2023-10-13T01:21:43;100501.59;;;17.47;100.00
37610;BME280;23457;51.966;8.230;2023-10-13T01:24:14;100493.56;;;17.56;100.00
37610;BME280;23457;51.966;8.230;2023-10-13T01:26:44;100490.84;;;17.61;100.00
37610;BME280;23457;51.966;8.230;2023-10-13T01:29:10;100490.81;;;17.65;100.00
37610;BME280;23457;51.966;8.230;2023-10-13T01:31:44;100483.81;;;17.64;100.00
37610;BME280;23457;51.966;8.230;2023-10-13T01:36:39;100487.44;;;17.55;100.00
37610;BME280;23457;51.966;8.230;2023-10-13T01:39:09;100473.22;;;17.72;100.00
37610;BME280;23457;51.966;8.230;2023-10-13T01:41:37;100482.22;;;17.52;100.00
37610;BME280;23457;51.966;8.230;2023-10-13T01:44:05;100476.84;;;17.63;100.00
37610;BME280;23457;51.966;8.230;2023-10-13T01:46:32;100471.56;;;17.62;100.00
37610;BME280;23457;51.966;8.230;2023-10-13T01:48:59;100468.22;;;17.52;100.00
37610;BME280;23457;51.966;8.230;2023-10-13T01:51:25;100460.94;;;17.72;100.00
37610;BME280;23457;51.966;8.230;2023-10-13T01:53:54;100467.16;;;17.67;100.00
37610;BME280;23457;51.966;8.230;2023-10-13T01:56:23;100461.16;;;17.55;100.00
37610;BME280;23457;51.966;8.230;2023-10-13T01:58:51;100460.06;;;17.72;100.00
37610;BME280;23457;51.966;8.230;2023-10-13T02:01:20;100464.56;;;17.61;100.00
37610;BME280;23457;51.966;8.230;2023-10-13T02:03:55;100451.22;;;17.74;100.00
37610;BME280;23457;51.966;8.230;2023-10-13T02:06:34;100457.47;;;17.69;100.00
37610;BME280;23457;51.966;8.230;2023-10-13T02:09:06;100452.19;;;17.70;100.00
37610;BME280;23457;51.966;8.230;2023-10-13T02:11:52;100448.78;;;17.65;100.00
37610;BME280;23457;51.966;8.230;2023-10-13T02:14:23;100442.78;;;17.55;100.00
37610;BME280;23457;51.966;8.230;2023-10-13T02:16:52;100442.88;;;17.49;100.00
37610;BME280;23457;51.966;8.230;2023-10-13T02:19:41;100440.25;;;17.48;100.00
37610;BME280;23457;51.966;8.230;2023-10-13T02:22:12;100441.19;;;17.45;100.00
37610;BME280;23457;51.966;8.230;2023-10-13T02:24:50;100437.72;;;17.43;100.00
37610;BME280;23457;51.966;8.230;2023-10-13T02:27:19;100432.44;;;17.46;100.00
37610;BME280;23457;51.966;8.230;2023-10-13T02:29:50;100427.06;;;17.52;100.00
37610;BME280;23457;51.966;8.230;2023-10-13T02:32:17;100425.91;;;17.72;100.00
37610;BME280;23457;51.966;8.230;2023-10-13T02:34:47;100419.94;;;17.59;100.00
37610;BME280;23457;51.966;8.230;2023-10-13T02:37:13;100418.28;;;17.53;100.00
37610;BME280;23457;51.966;8.230;2023-10-13T02:39:40;100417.22;;;17.67;100.00
37610;BME280;23457;51.966;8.230;2023-10-13T02:42:08;100411.88;;;17.71;100.00
37610;BME280;23457;51.966;8.230;2023-10-13T02:44:42;100410.03;;;17.75;100.00
37610;BME280;23457;51.966;8.230;2023-10-13T02:47:13;100401.63;;;17.54;100.00
37610;BME280;23457;51.966;8.230;2023-10-13T02:49:41;100404.75;;;17.76;100.00
37610;BME280;23457;51.966;8.230;2023-10-13T02:52:13;100402.34;;;17.64;100.00
37610;BME280;23457;51.966;8.230;2023-10-13T02:54:40;100402.28;;;17.69;100.00
37610;BME280;23457;51.966;8.230;2023-10-13T02:57:09;100398.59;;;17.79;100.00
37610;BME280;23457;51.966;8.230;2023-10-13T02:59:36;100397.72;;;17.78;100.00
37610;BME280;23457;51.966;8.230;2023-10-13T03:02:07;100399.38;;;17.84;100.00
37610;BME280;23457;51.966;8.230;2023-10-13T03:04:57;100393.63;;;17.61;100.00
37610;BME280;23457;51.966;8.230;2023-10-13T03:07:27;100390.09;;;17.65;100.00
37610;BME280;23457;51.966;8.230;2023-10-13T03:09:58;100384.75;;;17.71;100.00
37610;BME280;23457;51.966;8.230;2023-10-13T03:12:27;100380.53;;;17.59;100.00
37610;BME280;23457;51.966;8.230;2023-10-13T03:15:00;100378.66;;;17.67;100.00
37610;BME280;23457;51.966;8.230;2023-10-13T03:17:41;100378.72;;;17.64;100.00
37610;BME280;23457;51.966;8.230;2023-10-13T03:20:12;100372.53;;;17.67;100.00
37610;BME280;23457;51.966;8.230;2023-10-13T03:22:42;100360.25;;;17.69;100.00
37610;BME280;23457;51.966;8.230;2023-10-13T03:25:14;100361.78;;;17.79;100.00
37610;BME280;23457;51.966;8.230;2023-10-13T03:27:51;100351.47;;;17.70;100.00
37610;BME280;23457;51.966;8.230;2023-10-13T03:30:19;100349.69;;;17.72;100.00
37610;BME280;23457;51.966;8.230;2023-10-13T03:32:47;100348.84;;;17.70;100.00
37610;BME280;23457;51.966;8.230;2023-10-13T03:35:21;100341.81;;;17.70;100.00
37610;BME280;23457;51.966;8.230;2023-10-13T03:37:51;100350.69;;;17.63;100.00
37610;BME280;23457;51.966;8.230;2023-10-13T03:40:19;100346.16;;;17.73;100.00
37610;BME280;23457;51.966;8.230;2023-10-13T03:42:51;100341.84;;;17.69;100.00
37610;BME280;23457;51.966;8.230;2023-10-13T03:45:42;100348.94;;;17.61;100.00
37610;BME280;23457;51.966;8.230;2023-10-13T03:48:14;100336.00;;;17.51;100.00
37610;BME280;23457;51.966;8.230;2023-10-13T03:50:54;100338.75;;;17.45;100.00
37610;BME280;23457;51.966;8.230;2023-10-13T03:53:31;100328.84;;;17.60;100.00
37610;BME280;23457;51.966;8.230;2023-10-13T03:56:01;100328.94;;;17.53;100.00
37610;BME280;23457;51.966;8.230;2023-10-13T03:58:38;100328.69;;;17.70;100.00
37610;BME280;23457;51.966;8.230;2023-10-13T04:01:08;100324.53;;;17.55;100.00
37610;BME280;23457;51.966;8.230;2023-10-13T04:03:42;100318.16;;;17.70;100.00
37610;BME280;23457;51.966;8.230;2023-10-13T04:06:33;100316.41;;;17.71;100.00
37610;BME280;23457;51.966;8.230;2023-10-13T04:09:15;100313.19;;;17.53;100.00
37610;BME280;23457;51.966;8.230;2023-10-13T04:12:01;100308.81;;;17.54;100.00
37610;BME280;23457;51.966;8.230;2023-10-13T04:17:14;100305.63;;;17.35;100.00
37610;BME280;23457;51.966;8.230;2023-10-13T04:19:41;100298.34;;;17.51;100.00
37610;BME280;23457;51.966;8.230;2023-10-13T04:25:27;100289.31;;;17.67;100.00
37610;BME280;23457;51.966;8.230;2023-10-13T04:28:14;100288.69;;;17.51;100.00
37610;BME280;23457;51.966;8.230;2023-10-13T04:30:46;100285.22;;;17.49;100.00
37610;BME280;23457;51.966;8.230;2023-10-13T04:33:33;100287.06;;;17.47;100.00
37610;BME280;23457;51.966;8.230;2023-10-13T04:36:20;100290.34;;;17.59;100.00
37610;BME280;23457;51.966;8.230;2023-10-13T04:38:51;100282.44;;;17.59;100.00
37610;BME280;23457;51.966;8.230;2023-10-13T04:41:32;100272.06;;;17.51;100.00
37610;BME280;23457;51.966;8.230;2023-10-13T04:44:21;100275.53;;;17.53;100.00
37610;BME280;23457;51.966;8.230;2023-10-13T04:46:58;100269.59;;;17.43;100.00
37610;BME280;23457;51.966;8.230;2023-10-13T04:49:27;100264.94;;;17.59;100.00
37610;BME280;23457;51.966;8.230;2023-10-13T04:52:09;100272.06;;;17.51;100.00
37610;BME280;23457;51.966;8.230;2023-10-13T04:54:41;100255.19;;;17.64;100.00
37610;BME280;23457;51.966;8.230;2023-10-13T04:57:16;100248.22;;;17.62;100.00
37610;BME280;23457;51.966;8.230;2023-10-13T04:59:53;100241.16;;;17.65;100.00
37610;BME280;23457;51.966;8.230;2023-10-13T05:02:43;100240.72;;;17.42;100.00
37610;BME280;23457;51.966;8.230;2023-10-13T05:05:28;100233.56;;;17.48;100.00
37610;BME280;23457;51.966;8.230;2023-10-13T05:08:12;100223.03;;;17.50;100.00
37610;BME280;23457;51.966;8.230;2023-10-13T05:11:09;100228.47;;;17.42;100.00
37610;BME280;23457;51.966;8.230;2023-10-13T05:13:54;100221.94;;;17.62;100.00
37610;BME280;23457;51.966;8.230;2023-10-13T05:16:39;100221.91;;;17.65;100.00
37610;BME280;23457;51.966;8.230;2023-10-13T05:19:24;100218.41;;;17.63;100.00
37610;BME280;23457;51.966;8.230;2023-10-13T05:22:35;100206.50;;;17.46;100.00
37610;BME280;23457;51.966;8.230;2023-10-13T05:25:35;100203.47;;;17.66;100.00
37610;BME280;23457;51.966;8.230;2023-10-13T05:28:20;100200.50;;;17.83;100.00
37610;BME280;23457;51.966;8.230;2023-10-13T05:31:07;100198.44;;;17.55;100.00
37610;BME280;23457;51.966;8.230;2023-10-13T05:33:53;100186.19;;;17.54;100.00
37610;BME280;23457;51.966;8.230;2023-10-13T05:36:38;100187.00;;;17.58;100.00
37610;BME280;23457;51.966;8.230;2023-10-13T05:39:23;100178.59;;;17.41;100.00
37610;BME280;23457;51.966;8.230;2023-10-13T05:42:08;100181.63;;;17.63;100.00
37610;BME280;23457;51.966;8.230;2023-10-13T05:44:53;100166.38;;;17.81;100.00
37610;BME280;23457;51.966;8.230;2023-10-13T05:47:35;100161.06;;;17.83;100.00
37610;BME280;23457;51.966;8.230;2023-10-13T05:50:11;100161.91;;;17.43;100.00
37610;BME280;23457;51.966;8.230;2023-10-13T05:52:47;100158.09;;;17.58;100.00
37610;BME280;23457;51.966;8.230;2023-10-13T05:55:30;100158.09;;;17.58;100.00
37610;BME280;23457;51.966;8.230;2023-10-13T05:58:16;100155.28;;;17.67;100.00
37610;BME280;23457;51.966;8.230;2023-10-13T06:01:01;100148.56;;;17.52;100.00
37610;BME280;23457;51.966;8.230;2023-10-13T06:03:47;100150.53;;;17.43;100.00
37610;BME280;23457;51.966;8.230;2023-10-13T06:06:32;100157.41;;;17.48;100.00
37610;BME280;23457;51.966;8.230;2023-10-13T06:09:17;100151.41;;;17.42;100.00
37610;BME280;23457;51.966;8.230;2023-10-13T06:12:03;100146.00;;;17.49;100.00
37610;BME280;23457;51.966;8.230;2023-10-13T06:14:48;100143.38;;;17.49;100.00
37610;BME280;23457;51.966;8.230;2023-10-13T06:17:33;100145.19;;;17.47;100.00
37610;BME280;23457;51.966;8.230;2023-10-13T06:20:19;100135.31;;;17.59;100.00
37610;BME280;23457;51.966;8.230;2023-10-13T06:23:03;100141.47;;;17.58;100.00
37610;BME280;23457;51.966;8.230;2023-10-13T06:25:52;100136.31;;;17.51;100.00
37610;BME280;23457;51.966;8.230;2023-10-13T06:29:27;100141.28;;;17.67;100.00
37610;BME280;23457;51.966;8.230;2023-10-13T06:31:53;100136.72;;;17.75;100.00
37610;BME280;23457;51.966;8.230;2023-10-13T06:34:23;100133.44;;;17.65;100.00
37610;BME280;23457;51.966;8.230;2023-10-13T06:37:04;100119.97;;;17.79;100.00
37610;BME280;23457;51.966;8.230;2023-10-13T06:39:52;100121.19;;;17.63;100.00
37610;BME280;23457;51.966;8.230;2023-10-13T06:42:26;100121.94;;;17.71;100.00
37610;BME280;23457;51.966;8.230;2023-10-13T06:44:56;100125.56;;;17.64;100.00
37610;BME280;23457;51.966;8.230;2023-10-13T06:47:22;100134.56;;;17.52;100.00
37610;BME280;23457;51.966;8.230;2023-10-13T06:49:51;100130.75;;;17.68;100.00
37610;BME280;23457;51.966;8.230;2023-10-13T06:52:18;100127.94;;;17.76;100.00
37610;BME280;23457;51.966;8.230;2023-10-13T06:54:44;100135.75;;;17.79;100.00
37610;BME280;23457;51.966;8.230;2023-10-13T06:57:11;100134.22;;;17.69;100.00
37610;BME280;23457;51.966;8.230;2023-10-13T06:59:40;100133.47;;;17.61;100.00
37610;BME280;23457;51.966;8.230;2023-10-13T07:02:07;100127.06;;;17.75;100.00
37610;BME280;23457;51.966;8.230;2023-10-13T07:04:53;100136.72;;;17.75;100.00
37610;BME280;23457;51.966;8.230;2023-10-13T07:07:24;100136.56;;;17.82;100.00
37610;BME280;23457;51.966;8.230;2023-10-13T07:09:50;100125.13;;;17.85;100.00
37610;BME280;23457;51.966;8.230;2023-10-13T07:12:24;100116.03;;;17.98;100.00
37610;BME280;23457;51.966;8.230;2023-10-13T07:14:59;100108.25;;;17.94;100.00
37610;BME280;23457;51.966;8.230;2023-10-13T07:17:38;100115.72;;;17.73;100.00
37610;BME280;23457;51.966;8.230;2023-10-13T07:20:11;100112.66;;;17.93;100.00
37610;BME280;23457;51.966;8.230;2023-10-13T07:22:42;100106.94;;;18.11;100.00
37610;BME280;23457;51.966;8.230;2023-10-13T07:25:22;100103.81;;;17.96;100.00
37610;BME280;23457;51.966;8.230;2023-10-13T07:28:18;100123.16;;;17.93;100.00
37610;BME280;23457;51.966;8.230;2023-10-13T07:30:44;100118.56;;;18.01;100.00
37610;BME280;23457;51.966;8.230;2023-10-13T07:33:23;100120.91;;;18.13;100.00
37610;BME280;23457;51.966;8.230;2023-10-13T07:36:05;100104.47;;;18.05;100.00
37610;BME280;23457;51.966;8.230;2023-10-13T07:38:43;100105.91;;;18.18;100.00
37610;BME280;23457;51.966;8.230;2023-10-13T07:41:15;100106.41;;;18.33;100.00
37610;BME280;23457;51.966;8.230;2023-10-13T07:43:48;100098.38;;;18.37;100.00
37610;BME280;23457;51.966;8.230;2023-10-13T07:46:15;100110.94;;;18.26;100.00
37610;BME280;23457;51.966;8.230;2023-10-13T07:48:41;100116.69;;;18.42;100.00
37610;BME280;23457;51.966;8.230;2023-10-13T07:51:14;100110.81;;;18.32;100.00
37610;BME280;23457;51.966;8.230;2023-10-13T07:53:43;100108.72;;;18.45;100.00
37610;BME280;23457;51.966;8.230;2023-10-13T07:56:10;100109.63;;;18.44;100.00
37610;BME280;23457;51.966;8.230;2023-10-13T07:58:40;100111.59;;;18.36;100.00
37610;BME280;23457;51.966;8.230;2023-10-13T08:01:19;100108.50;;;18.54;100.00
37610;BME280;23457;51.966;8.230;2023-10-13T08:03:47;100110.91;;;18.63;100.00
37610;BME280;23457;51.966;8.230;2023-10-13T08:06:17;100105.31;;;18.75;100.00
37610;BME280;23457;51.966;8.230;2023-10-13T08:08:47;100099.50;;;18.63;100.00
37610;BME280;23457;51.966;8.230;2023-10-13T08:11:19;100098.03;;;18.85;100.00
37610;BME280;23457;51.966;8.230;2023-10-13T08:13:49;100111.31;;;18.80;100.00
37610;BME280;23457;51.966;8.230;2023-10-13T08:16:36;100102.31;;;18.89;100.00
37610;BME280;23457;51.966;8.230;2023-10-13T08:19:16;100091.88;;;18.86;100.00
37610;BME280;23457;51.966;8.230;2023-10-13T08:21:44;100106.03;;;18.82;100.00
37610;BME280;23457;51.966;8.230;2023-10-13T08:24:31;100103.94;;;18.93;100.00
37610;BME280;23457;51.966;8.230;2023-10-13T08:27:07;100104.06;;;18.88;100.00
37610;BME280;23457;51.966;8.230;2023-10-13T08:29:46;100094.38;;;18.90;100.00
37610;BME280;23457;51.966;8.230;2023-10-13T08:32:28;100102.47;;;19.14;100.00
37610;BME280;23457;51.966;8.230;2023-10-13T08:34:59;100080.72;;;19.07;100.00
37610;BME280;23457;51.966;8.230;2023-10-13T08:37:40;100082.97;;;19.21;100.00
37610;BME280;23457;51.966;8.230;2023-10-13T08:40:22;100087.34;;;19.22;100.00
37610;BME280;23457;51.966;8.230;2023-10-13T08:43:12;100073.06;;;19.29;100.00
37610;BME280;23457;51.966;8.230;2023-10-13T08:45:40;100062.44;;;19.32;100.00
37610;BME280;23457;51.966;8.230;2023-10-13T08:48:11;100064.59;;;19.47;100.00
37610;BME280;23457;51.966;8.230;2023-10-13T08:50:42;100047.38;;;19.37;100.00
37610;BME280;23457;51.966;8.230;2023-10-13T08:58:31;100030.38;;;19.75;100.00
37610;BME280;23457;51.966;8.230;2023-10-13T09:01:17;100021.78;;;19.68;100.00
37610;BME280;23457;51.966;8.230;2023-10-13T09:04:08;100026.66;;;19.81;100.00
37610;BME280;23457;51.966;8.230;2023-10-13T09:06:48;100008.00;;;20.13;100.00
37610;BME280;23457;51.966;8.230;2023-10-13T09:12:20;100002.44;;;20.47;100.00
37610;BME280;23457;51.966;8.230;2023-10-13T09:15:09;99995.03;;;20.32;100.00
37610;BME280;23457;51.966;8.230;2023-10-13T09:17:45;99989.84;;;20.29;100.00
37610;BME280;23457;51.966;8.230;2023-10-13T09:20:39;99990.78;;;20.53;100.00
37610;BME280;23457;51.966;8.230;2023-10-13T09:23:10;99987.13;;;20.57;100.00
37610;BME280;23457;51.966;8.230;2023-10-13T09:25:40;99994.22;;;20.30;100.00
37610;BME280;23457;51.966;8.230;2023-10-13T09:28:21;99964.81;;;20.41;100.00
37610;BME280;23457;51.966;8.230;2023-10-13T09:30:55;99974.66;;;20.37;100.00
37610;BME280;23457;51.966;8.230;2023-10-13T09:33:27;99956.75;;;20.20;100.00
37610;BME280;23457;51.966;8.230;2023-10-13T09:36:07;99952.91;;;20.54;100.00
37610;BME280;23457;51.966;8.230;2023-10-13T09:38:36;99958.59;;;20.43;100.00
37610;BME280;23457;51.966;8.230;2023-10-13T09:41:06;99960.16;;;20.49;100.00
37610;BME280;23457;51.966;8.230;2023-10-13T09:43:45;99938.56;;;20.37;100.00
37610;BME280;23457;51.966;8.230;2023-10-13T09:46:20;99934.72;;;20.69;100.00
37610;BME280;23457;51.966;8.230;2023-10-13T09:48:56;99942.59;;;20.71;100.00
37610;BME280;23457;51.966;8.230;2023-10-13T09:51:34;99931.31;;;20.66;100.00
37610;BME280;23457;51.966;8.230;2023-10-13T09:54:09;99936.44;;;20.70;100.00
37610;BME280;23457;51.966;8.230;2023-10-13T09:56:55;99946.06;;;20.95;100.00
37610;BME280;23457;51.966;8.230;2023-10-13T09:59:33;99933.97;;;20.89;100.00
37610;BME280;23457;51.966;8.230;2023-10-13T10:02:08;99933.19;;;20.87;100.00
37610;BME280;23457;51.966;8.230;2023-10-13T10:04:36;99942.72;;;20.90;100.00
37610;BME280;23457;51.966;8.230;2023-10-13T10:07:27;99926.94;;;21.12;100.00
37610;BME280;23457;51.966;8.230;2023-10-13T10:09:56;99915.50;;;21.11;100.00
37610;BME280;23457;51.966;8.230;2023-10-13T10:15:33;99919.09;;;21.32;100.00
37610;BME280;23457;51.966;8.230;2023-10-13T10:18:02;99921.53;;;21.58;100.00
37610;BME280;23457;51.966;8.230;2023-10-13T10:20:35;99906.34;;;21.63;100.00
37610;BME280;23457;51.966;8.230;2023-10-13T10:23:27;99903.81;;;21.80;100.00
37610;BME280;23457;51.966;8.230;2023-10-13T10:25:55;99894.44;;;21.73;100.00
37610;BME280;23457;51.966;8.230;2023-10-13T10:28:39;99906.59;;;21.99;100.00
37610;BME280;23457;51.966;8.230;2023-10-13T10:31:09;99917.56;;;22.29;100.00
37610;BME280;23457;51.966;8.230;2023-10-13T10:33:39;99909.25;;;22.38;100.00
37610;BME280;23457;51.966;8.230;2023-10-13T10:36:07;99904.25;;;22.70;100.00
37610;BME280;23457;51.966;8.230;2023-10-13T10:38:56;99901.53;;;22.52;100.00
37610;BME280;23457;51.966;8.230;2023-10-13T10:41:27;99891.81;;;22.72;100.00
37610;BME280;23457;51.966;8.230;2023-10-13T10:44:14;99880.34;;;22.52;100.00
37610;BME280;23457;51.966;8.230;2023-10-13T10:47:11;99882.59;;;22.23;100.00
37610;BME280;23457;51.966;8.230;2023-10-13T10:49:38;99865.44;;;22.31;100.00
37610;BME280;23457;51.966;8.230;2023-10-13T10:52:09;99875.03;;;22.15;100.00
37610;BME280;23457;51.966;8.230;2023-10-13T10:54:41;99876.19;;;22.28;100.00
37610;BME280;23457;51.966;8.230;2023-10-13T10:57:11;99872.56;;;22.49;100.00
37610;BME280;23457;51.966;8.230;2023-10-13T10:59:38;99861.38;;;22.62;100.00
37610;BME280;23457;51.966;8.230;2023-10-13T11:02:06;99865.50;;;22.88;100.00
37610;BME280;23457;51.966;8.230;2023-10-13T11:04:33;99866.63;;;22.82;100.00
37610;BME280;23457;51.966;8.230;2023-10-13T11:07:00;99865.53;;;23.05;100.00
37610;BME280;23457;51.966;8.230;2023-10-13T11:09:31;99852.03;;;22.92;98.99
37610;BME280;23457;51.966;8.230;2023-10-13T11:15:01;99851.13;;;23.10;96.81
37610;BME280;23457;51.966;8.230;2023-10-13T11:17:28;99847.81;;;23.05;96.77
37610;BME280;23457;51.966;8.230;2023-10-13T11:20:17;99833.88;;;23.02;97.86
37610;BME280;23457;51.966;8.230;2023-10-13T11:22:48;99827.91;;;23.15;97.49
37610;BME280;23457;51.966;8.230;2023-10-13T11:25:29;99837.28;;;23.40;98.24
37610;BME280;23457;51.966;8.230;2023-10-13T11:27:57;99831.66;;;23.46;95.08
37610;BME280;23457;51.966;8.230;2023-10-13T11:30:27;99829.66;;;23.51;92.54
37610;BME280;23457;51.966;8.230;2023-10-13T11:33:04;99819.28;;;23.81;90.80
37610;BME280;23457;51.966;8.230;2023-10-13T11:35:36;99824.97;;;23.73;94.76
37610;BME280;23457;51.966;8.230;2023-10-13T11:38:35;99829.81;;;23.65;91.22
37610;BME280;23457;51.966;8.230;2023-10-13T11:41:13;99819.22;;;23.65;89.66
37610;BME280;23457;51.966;8.230;2023-10-13T11:43:49;99816.88;;;23.59;87.51
37610;BME280;23457;51.966;8.230;2023-10-13T11:46:22;99804.72;;;23.55;87.23
37610;BME280;23457;51.966;8.230;2023-10-13T11:49:06;99804.97;;;23.49;91.74
37610;BME280;23457;51.966;8.230;2023-10-13T11:51:40;99812.75;;;23.53;93.46
37610;BME280;23457;51.966;8.230;2023-10-13T11:54:17;99804.97;;;23.32;91.61
37610;BME280;23457;51.966;8.230;2023-10-13T11:56:45;99791.91;;;23.29;90.28
37610;BME280;23457;51.966;8.230;2023-10-13T11:59:12;99800.16;;;23.40;91.38
37610;BME280;23457;51.966;8.230;2023-10-13T12:01:48;99787.22;;;23.16;91.05
37610;BME280;23457;51.966;8.230;2023-10-13T12:04:34;99788.47;;;23.27;89.13
37610;BME280;23457;51.966;8.230;2023-10-13T12:07:16;99785.25;;;23.20;93.11
37610;BME280;23457;51.966;8.230;2023-10-13T12:09:53;99778.88;;;23.24;91.71
37610;BME280;23457;51.966;8.230;2023-10-13T12:12:24;99773.56;;;23.24;92.21
37610;BME280;23457;51.966;8.230;2023-10-13T12:14:52;99762.44;;;23.17;89.40
37610;BME280;23457;51.966;8.230;2023-10-13T12:17:19;99755.41;;;23.16;90.59
37610;BME280;23457;51.966;8.230;2023-10-13T12:19:52;99754.84;;;23.10;91.03
37610;BME280;23457;51.966;8.230;2023-10-13T12:22:19;99747.28;;;23.19;92.20
37610;BME280;23457;51.966;8.230;2023-10-13T12:24:57;99746.34;;;23.20;92.07
37610;BME280;23457;51.966;8.230;2023-10-13T12:27:24;99742.75;;;23.21;91.21
37610;BME280;23457;51.966;8.230;2023-10-13T12:29:53;99733.47;;;23.65;91.25
37610;BME280;23457;51.966;8.230;2023-10-13T12:32:23;99744.41;;;23.91;88.84
37610;BME280;23457;51.966;8.230;2023-10-13T12:34:57;99729.91;;;24.30;85.77
37610;BME280;23457;51.966;8.230;2023-10-13T12:37:25;99727.13;;;24.16;85.10
37610;BME280;23457;51.966;8.230;2023-10-13T12:40:14;99719.09;;;24.49;84.38
37610;BME280;23457;51.966;8.230;2023-10-13T12:43:01;99723.47;;;24.50;85.07
37610;BME280;23457;51.966;8.230;2023-10-13T12:45:47;99711.75;;;24.84;85.92
37610;BME280;23457;51.966;8.230;2023-10-13T12:48:35;99714.06;;;24.90;82.49
37610;BME280;23457;51.966;8.230;2023-10-13T12:51:21;99718.72;;;24.71;83.59
37610;BME280;23457;51.966;8.230;2023-10-13T12:53:55;99709.94;;;25.00;85.60
37610;BME280;23457;51.966;8.230;2023-10-13T12:56:32;99726.25;;;24.78;81.72
37610;BME280;23457;51.966;8.230;2023-10-13T12:59:02;99705.00;;;24.94;83.57
37610;BME280;23457;51.966;8.230;2023-10-13T13:01:35;99710.81;;;24.85;83.25
37610;BME280;23457;51.966;8.230;2023-10-13T13:04:04;99690.56;;;24.98;83.67
37610;BME280;23457;51.966;8.230;2023-10-13T13:06:30;99699.31;;;25.00;83.18
37610;BME280;23457;51.966;8.230;2023-10-13T13:08:59;99702.25;;;24.80;81.38
37610;BME280;23457;51.966;8.230;2023-10-13T13:11:26;99690.56;;;24.68;81.90
37610;BME280;23457;51.966;8.230;2023-10-13T13:13:56;99686.13;;;24.83;79.19
37610;BME280;23457;51.966;8.230;2023-10-13T13:16:23;99678.84;;;25.16;78.76
37610;BME280;23457;51.966;8.230;2023-10-13T13:18:57;99696.47;;;25.03;78.67
37610;BME280;23457;51.966;8.230;2023-10-13T13:21:23;99690.91;;;25.22;76.05
37610;BME280;23457;51.966;8.230;2023-10-13T13:23:53;99675.78;;;25.22;77.83
37610;BME280;23457;51.966;8.230;2023-10-13T13:26:23;99677.41;;;24.81;80.01
37610;BME280;23457;51.966;8.230;2023-10-13T13:28:50;99678.22;;;24.97;74.80
37610;BME280;23457;51.966;8.230;2023-10-13T13:31:18;99682.91;;;25.08;77.65
37610;BME280;23457;51.966;8.230;2023-10-13T13:33:45;99671.16;;;24.82;74.30
37610;BME280;23457;51.966;8.230;2023-10-13T13:36:11;99677.47;;;24.95;78.92
37610;BME280;23457;51.966;8.230;2023-10-13T13:38:43;99675.13;;;25.05;76.30
37610;BME280;23457;51.966;8.230;2023-10-13T13:41:16;99668.19;;;25.02;74.74
37610;BME280;23457;51.966;8.230;2023-10-13T13:43:43;99668.28;;;24.85;76.91
37610;BME280;23457;51.966;8.230;2023-10-13T13:46:17;99664.94;;;24.67;76.16
37610;BME280;23457;51.966;8.230;2023-10-13T13:48:45;99674.88;;;24.63;76.29
37610;BME280;23457;51.966;8.230;2023-10-13T13:51:14;99667.13;;;24.75;75.38